sensor_id;sensor_type;location;lat;lon;timestamp;P1;durP1;ratioP1;P2;durP2;ratioP2
8104;SDS011;4095;48.942;9.104;2022-10-16T00:01:22;3.43;;;2.23;;
8104;SDS011;4095;48.942;9.104;2022-10-16T00:03:49;3.87;;;2.20;;
8104;SDS011;4095;48.942;9.104;2022-10-16T00:06:16;2.93;;;2.60;;
8104;SDS011;4095;48.942;9.104;2022-10-16T00:08:43;3.73;;;2.10;;
8104;SDS011;4095;48.942;9.104;2022-10-16T00:11:10;3.23;;;2.20;;
8104;SDS011;4095;48.942;9.104;2022-10-16T00:13:48;5.83;;;2.23;;
8104;SDS011;4095;48.942;9.104;2022-10-16T00:16:15;2.63;;;2.37;;
8104;SDS011;4095;48.942;9.104;2022-10-16T00:18:41;2.87;;;2.30;;
8104;SDS011;4095;48.942;9.104;2022-10-16T00:23:35;3.93;;;2.30;;
8104;SDS011;4095;48.942;9.104;2022-10-16T00:26:03;3.63;;;2.23;;
8104;SDS011;4095;48.942;9.104;2022-10-16T00:28:30;2.83;;;2.17;;
8104;SDS011;4095;48.942;9.104;2022-10-16T00:30:56;2.40;;;2.20;;
8104;SDS011;4095;48.942;9.104;2022-10-16T00:33:22;3.70;;;2.30;;
8104;SDS011;4095;48.942;9.104;2022-10-16T00:35:48;3.90;;;2.30;;
8104;SDS011;4095;48.942;9.104;2022-10-16T00:38:15;6.80;;;2.70;;
8104;SDS011;4095;48.942;9.104;2022-10-16T00:40:41;2.90;;;2.30;;
8104;SDS011;4095;48.942;9.104;2022-10-16T00:43:53;3.77;;;2.50;;
8104;SDS011;4095;48.942;9.104;2022-10-16T00:45:59;2.63;;;2.40;;
8104;SDS011;4095;48.942;9.104;2022-10-16T00:48:26;5.03;;;2.10;;
8104;SDS011;4095;48.942;9.104;2022-10-16T00:50:51;4.60;;;2.40;;
8104;SDS011;4095;48.942;9.104;2022-10-16T00:53:18;2.93;;;2.10;;
8104;SDS011;4095;48.942;9.104;2022-10-16T00:55:44;2.60;;;2.07;;
8104;SDS011;4095;48.942;9.104;2022-10-16T00:58:11;3.77;;;2.60;;
8104;SDS011;4095;48.942;9.104;2022-10-16T01:00:37;3.17;;;2.33;;
8104;SDS011;4095;48.942;9.104;2022-10-16T01:03:03;4.60;;;2.20;;
8104;SDS011;4095;48.942;9.104;2022-10-16T01:05:49;3.80;;;2.20;;
8104;SDS011;4095;48.942;9.104;2022-10-16T01:08:26;2.97;;;2.23;;
8104;SDS011;4095;48.942;9.104;2022-10-16T01:11:16;3.87;;;2.20;;
8104;SDS011;4095;48.942;9.104;2022-10-16T01:13:49;2.17;;;1.97;;
8104;SDS011;4095;48.942;9.104;2022-10-16T01:16:28;4.70;;;2.27;;
8104;SDS011;4095;48.942;9.104;2022-10-16T01:22:01;3.63;;;2.20;;
8104;SDS011;4095;48.942;9.104;2022-10-16T01:24:40;4.07;;;2.30;;
8104;SDS011;4095;48.942;9.104;2022-10-16T01:27:25;4.27;;;2.10;;
8104;SDS011;4095;48.942;9.104;2022-10-16T01:35:11;2.57;;;2.23;;
8104;SDS011;4095;48.942;9.104;2022-10-16T01:37:45;5.27;;;2.43;;
8104;SDS011;4095;48.942;9.104;2022-10-16T01:40:16;2.77;;;2.50;;
8104;SDS011;4095;48.942;9.104;2022-10-16T01:42:46;3.17;;;2.53;;
8104;SDS011;4095;48.942;9.104;2022-10-16T01:45:17;2.50;;;2.30;;
8104;SDS011;4095;48.942;9.104;2022-10-16T01:47:45;5.00;;;2.20;;
8104;SDS011;4095;48.942;9.104;2022-10-16T01:50:12;5.50;;;2.60;;
8104;SDS011;4095;48.942;9.104;2022-10-16T01:52:42;2.90;;;2.43;;
8104;SDS011;4095;48.942;9.104;2022-10-16T01:55:10;5.20;;;2.40;;
8104;SDS011;4095;48.942;9.104;2022-10-16T01:57:45;4.33;;;2.73;;
8104;SDS011;4095;48.942;9.104;2022-10-16T02:00:13;3.17;;;2.57;;
8104;SDS011;4095;48.942;9.104;2022-10-16T02:02:43;2.97;;;2.23;;
8104;SDS011;4095;48.942;9.104;2022-10-16T02:07:58;4.50;;;2.50;;
8104;SDS011;4095;48.942;9.104;2022-10-16T02:10:24;4.90;;;2.50;;
8104;SDS011;4095;48.942;9.104;2022-10-16T02:12:53;3.50;;;2.30;;
8104;SDS011;4095;48.942;9.104;2022-10-16T02:15:24;4.27;;;2.30;;
8104;SDS011;4095;48.942;9.104;2022-10-16T02:17:50;2.83;;;2.10;;
8104;SDS011;4095;48.942;9.104;2022-10-16T02:20:15;4.17;;;2.60;;
8104;SDS011;4095;48.942;9.104;2022-10-16T02:22:45;2.43;;;2.13;;
8104;SDS011;4095;48.942;9.104;2022-10-16T02:25:18;3.00;;;2.40;;
8104;SDS011;4095;48.942;9.104;2022-10-16T02:27:58;3.33;;;1.90;;
8104;SDS011;4095;48.942;9.104;2022-10-16T02:30:45;4.20;;;2.67;;
8104;SDS011;4095;48.942;9.104;2022-10-16T02:33:17;3.63;;;2.23;;
8104;SDS011;4095;48.942;9.104;2022-10-16T02:35:46;3.27;;;2.80;;
8104;SDS011;4095;48.942;9.104;2022-10-16T02:38:15;3.67;;;2.40;;
8104;SDS011;4095;48.942;9.104;2022-10-16T02:40:42;4.03;;;2.30;;
8104;SDS011;4095;48.942;9.104;2022-10-16T02:43:08;4.33;;;2.30;;
8104;SDS011;4095;48.942;9.104;2022-10-16T02:45:34;6.77;;;2.33;;
8104;SDS011;4095;48.942;9.104;2022-10-16T02:48:00;5.47;;;2.20;;
8104;SDS011;4095;48.942;9.104;2022-10-16T02:50:25;4.57;;;2.33;;
8104;SDS011;4095;48.942;9.104;2022-10-16T02:52:51;4.77;;;2.60;;
8104;SDS011;4095;48.942;9.104;2022-10-16T02:55:17;3.67;;;2.63;;
8104;SDS011;4095;48.942;9.104;2022-10-16T02:57:42;2.50;;;2.30;;
8104;SDS011;4095;48.942;9.104;2022-10-16T03:00:12;3.80;;;2.63;;
8104;SDS011;4095;48.942;9.104;2022-10-16T03:02:39;3.33;;;2.30;;
8104;SDS011;4095;48.942;9.104;2022-10-16T03:05:05;3.20;;;2.37;;
8104;SDS011;4095;48.942;9.104;2022-10-16T03:07:31;8.30;;;2.73;;
8104;SDS011;4095;48.942;9.104;2022-10-16T03:09:56;4.90;;;2.20;;
8104;SDS011;4095;48.942;9.104;2022-10-16T03:12:25;3.77;;;2.37;;
8104;SDS011;4095;48.942;9.104;2022-10-16T03:14:51;3.70;;;2.77;;
8104;SDS011;4095;48.942;9.104;2022-10-16T03:17:16;5.83;;;2.93;;
8104;SDS011;4095;48.942;9.104;2022-10-16T03:19:42;5.23;;;2.67;;
8104;SDS011;4095;48.942;9.104;2022-10-16T03:22:08;5.73;;;2.67;;
8104;SDS011;4095;48.942;9.104;2022-10-16T03:24:33;3.87;;;2.50;;
8104;SDS011;4095;48.942;9.104;2022-10-16T03:26:59;3.00;;;2.40;;
8104;SDS011;4095;48.942;9.104;2022-10-16T03:29:25;3.50;;;2.27;;
8104;SDS011;4095;48.942;9.104;2022-10-16T03:31:51;6.63;;;2.40;;
8104;SDS011;4095;48.942;9.104;2022-10-16T03:34:16;4.10;;;2.53;;
8104;SDS011;4095;48.942;9.104;2022-10-16T03:36:42;2.40;;;2.20;;
8104;SDS011;4095;48.942;9.104;2022-10-16T03:39:07;5.40;;;2.63;;
8104;SDS011;4095;48.942;9.104;2022-10-16T03:41:33;3.80;;;2.40;;
8104;SDS011;4095;48.942;9.104;2022-10-16T03:43:59;3.47;;;2.00;;
8104;SDS011;4095;48.942;9.104;2022-10-16T03:46:24;2.77;;;2.07;;
8104;SDS011;4095;48.942;9.104;2022-10-16T03:48:50;2.40;;;1.93;;
8104;SDS011;4095;48.942;9.104;2022-10-16T03:51:15;3.37;;;2.10;;
8104;SDS011;4095;48.942;9.104;2022-10-16T03:53:41;4.00;;;2.10;;
8104;SDS011;4095;48.942;9.104;2022-10-16T03:56:06;2.83;;;2.57;;
8104;SDS011;4095;48.942;9.104;2022-10-16T03:58:32;6.83;;;2.40;;
8104;SDS011;4095;48.942;9.104;2022-10-16T04:00:58;3.37;;;2.00;;
8104;SDS011;4095;48.942;9.104;2022-10-16T04:03:24;5.20;;;2.20;;
8104;SDS011;4095;48.942;9.104;2022-10-16T04:05:49;3.23;;;2.20;;
8104;SDS011;4095;48.942;9.104;2022-10-16T04:08:15;2.37;;;1.90;;
8104;SDS011;4095;48.942;9.104;2022-10-16T04:10:44;2.40;;;1.83;;
8104;SDS011;4095;48.942;9.104;2022-10-16T04:13:11;3.53;;;2.00;;
8104;SDS011;4095;48.942;9.104;2022-10-16T04:15:37;4.73;;;2.43;;
8104;SDS011;4095;48.942;9.104;2022-10-16T04:18:02;3.47;;;2.10;;
8104;SDS011;4095;48.942;9.104;2022-10-16T04:20:28;4.33;;;2.37;;
8104;SDS011;4095;48.942;9.104;2022-10-16T04:22:55;4.47;;;2.23;;
8104;SDS011;4095;48.942;9.104;2022-10-16T04:25:20;2.83;;;2.07;;
8104;SDS011;4095;48.942;9.104;2022-10-16T04:27:46;3.20;;;2.37;;
8104;SDS011;4095;48.942;9.104;2022-10-16T04:30:11;3.10;;;2.30;;
8104;SDS011;4095;48.942;9.104;2022-10-16T04:32:37;3.93;;;2.23;;
8104;SDS011;4095;48.942;9.104;2022-10-16T04:35:03;4.17;;;1.90;;
8104;SDS011;4095;48.942;9.104;2022-10-16T04:37:29;3.40;;;2.10;;
8104;SDS011;4095;48.942;9.104;2022-10-16T04:39:55;2.23;;;2.03;;
8104;SDS011;4095;48.942;9.104;2022-10-16T04:42:20;3.30;;;2.13;;
8104;SDS011;4095;48.942;9.104;2022-10-16T04:44:46;2.90;;;2.20;;
8104;SDS011;4095;48.942;9.104;2022-10-16T04:47:12;6.00;;;2.10;;
8104;SDS011;4095;48.942;9.104;2022-10-16T04:49:37;3.77;;;2.37;;
8104;SDS011;4095;48.942;9.104;2022-10-16T04:52:03;5.37;;;2.67;;
8104;SDS011;4095;48.942;9.104;2022-10-16T04:54:29;7.83;;;2.40;;
8104;SDS011;4095;48.942;9.104;2022-10-16T04:56:55;3.77;;;2.30;;
8104;SDS011;4095;48.942;9.104;2022-10-16T04:59:20;3.63;;;2.70;;
8104;SDS011;4095;48.942;9.104;2022-10-16T05:01:47;2.53;;;2.33;;
8104;SDS011;4095;48.942;9.104;2022-10-16T05:04:13;3.63;;;3.10;;
8104;SDS011;4095;48.942;9.104;2022-10-16T05:06:40;5.37;;;2.73;;
8104;SDS011;4095;48.942;9.104;2022-10-16T05:09:06;3.23;;;2.50;;
8104;SDS011;4095;48.942;9.104;2022-10-16T05:11:32;3.00;;;2.60;;
8104;SDS011;4095;48.942;9.104;2022-10-16T05:13:58;2.77;;;2.50;;
8104;SDS011;4095;48.942;9.104;2022-10-16T05:16:24;6.80;;;2.60;;
8104;SDS011;4095;48.942;9.104;2022-10-16T05:18:50;4.20;;;2.40;;
8104;SDS011;4095;48.942;9.104;2022-10-16T05:21:17;3.23;;;2.53;;
8104;SDS011;4095;48.942;9.104;2022-10-16T05:23:42;3.43;;;2.27;;
8104;SDS011;4095;48.942;9.104;2022-10-16T05:26:08;3.00;;;2.13;;
8104;SDS011;4095;48.942;9.104;2022-10-16T05:28:34;2.47;;;2.00;;
8104;SDS011;4095;48.942;9.104;2022-10-16T05:31:04;3.10;;;2.03;;
8104;SDS011;4095;48.942;9.104;2022-10-16T05:33:30;3.33;;;1.83;;
8104;SDS011;4095;48.942;9.104;2022-10-16T05:35:56;4.00;;;2.20;;
8104;SDS011;4095;48.942;9.104;2022-10-16T05:38:22;3.23;;;2.10;;
8104;SDS011;4095;48.942;9.104;2022-10-16T05:40:50;2.77;;;2.00;;
8104;SDS011;4095;48.942;9.104;2022-10-16T05:43:17;3.53;;;2.17;;
8104;SDS011;4095;48.942;9.104;2022-10-16T05:45:43;3.13;;;2.27;;
8104;SDS011;4095;48.942;9.104;2022-10-16T05:48:08;3.03;;;2.40;;
8104;SDS011;4095;48.942;9.104;2022-10-16T05:50:34;2.63;;;2.20;;
8104;SDS011;4095;48.942;9.104;2022-10-16T05:52:59;5.20;;;2.80;;
8104;SDS011;4095;48.942;9.104;2022-10-16T05:55:25;3.57;;;2.40;;
8104;SDS011;4095;48.942;9.104;2022-10-16T05:57:53;4.07;;;2.60;;
8104;SDS011;4095;48.942;9.104;2022-10-16T06:00:19;4.47;;;2.40;;
8104;SDS011;4095;48.942;9.104;2022-10-16T06:02:45;3.23;;;2.67;;
8104;SDS011;4095;48.942;9.104;2022-10-16T06:05:10;4.83;;;3.07;;
8104;SDS011;4095;48.942;9.104;2022-10-16T06:07:36;4.43;;;2.90;;
8104;SDS011;4095;48.942;9.104;2022-10-16T06:10:02;4.53;;;2.70;;
8104;SDS011;4095;48.942;9.104;2022-10-16T06:12:29;3.27;;;2.80;;
8104;SDS011;4095;48.942;9.104;2022-10-16T06:14:55;3.07;;;2.70;;
8104;SDS011;4095;48.942;9.104;2022-10-16T06:17:20;5.33;;;2.60;;
8104;SDS011;4095;48.942;9.104;2022-10-16T06:19:46;4.03;;;2.80;;
8104;SDS011;4095;48.942;9.104;2022-10-16T06:22:11;3.83;;;2.47;;
8104;SDS011;4095;48.942;9.104;2022-10-16T06:24:37;3.47;;;2.57;;
8104;SDS011;4095;48.942;9.104;2022-10-16T06:27:03;5.00;;;3.37;;
8104;SDS011;4095;48.942;9.104;2022-10-16T06:29:29;4.70;;;4.10;;
8104;SDS011;4095;48.942;9.104;2022-10-16T06:31:54;6.63;;;3.90;;
8104;SDS011;4095;48.942;9.104;2022-10-16T06:34:20;8.10;;;4.00;;
8104;SDS011;4095;48.942;9.104;2022-10-16T06:36:46;4.13;;;3.30;;
8104;SDS011;4095;48.942;9.104;2022-10-16T06:39:11;4.87;;;3.03;;
8104;SDS011;4095;48.942;9.104;2022-10-16T06:41:37;3.23;;;2.63;;
8104;SDS011;4095;48.942;9.104;2022-10-16T06:44:06;4.27;;;2.73;;
8104;SDS011;4095;48.942;9.104;2022-10-16T06:46:32;3.73;;;2.77;;
8104;SDS011;4095;48.942;9.104;2022-10-16T06:48:58;5.43;;;2.77;;
8104;SDS011;4095;48.942;9.104;2022-10-16T06:51:24;4.20;;;3.00;;
8104;SDS011;4095;48.942;9.104;2022-10-16T06:53:51;3.00;;;2.60;;
8104;SDS011;4095;48.942;9.104;2022-10-16T06:56:22;6.03;;;2.67;;
8104;SDS011;4095;48.942;9.104;2022-10-16T06:58:50;5.10;;;2.93;;
8104;SDS011;4095;48.942;9.104;2022-10-16T07:01:17;4.57;;;2.83;;
8104;SDS011;4095;48.942;9.104;2022-10-16T07:03:45;6.17;;;2.60;;
8104;SDS011;4095;48.942;9.104;2022-10-16T07:06:13;3.53;;;2.77;;
8104;SDS011;4095;48.942;9.104;2022-10-16T07:08:41;4.73;;;2.97;;
8104;SDS011;4095;48.942;9.104;2022-10-16T07:11:12;3.97;;;2.93;;
8104;SDS011;4095;48.942;9.104;2022-10-16T07:13:43;4.03;;;2.80;;
8104;SDS011;4095;48.942;9.104;2022-10-16T07:16:10;5.00;;;3.20;;
8104;SDS011;4095;48.942;9.104;2022-10-16T07:18:37;5.53;;;3.00;;
8104;SDS011;4095;48.942;9.104;2022-10-16T07:21:08;5.37;;;3.30;;
8104;SDS011;4095;48.942;9.104;2022-10-16T07:23:36;5.93;;;2.90;;
8104;SDS011;4095;48.942;9.104;2022-10-16T07:26:02;3.47;;;3.00;;
8104;SDS011;4095;48.942;9.104;2022-10-16T07:28:29;3.93;;;3.10;;
8104;SDS011;4095;48.942;9.104;2022-10-16T07:30:59;6.10;;;3.37;;
8104;SDS011;4095;48.942;9.104;2022-10-16T07:33:38;4.77;;;3.20;;
8104;SDS011;4095;48.942;9.104;2022-10-16T07:36:06;4.87;;;3.37;;
8104;SDS011;4095;48.942;9.104;2022-10-16T07:38:32;3.63;;;2.90;;
8104;SDS011;4095;48.942;9.104;2022-10-16T07:43:28;3.70;;;3.13;;
8104;SDS011;4095;48.942;9.104;2022-10-16T07:45:54;5.07;;;3.03;;
8104;SDS011;4095;48.942;9.104;2022-10-16T07:48:20;4.73;;;3.20;;
8104;SDS011;4095;48.942;9.104;2022-10-16T07:50:47;3.37;;;2.70;;
8104;SDS011;4095;48.942;9.104;2022-10-16T07:53:13;5.07;;;2.57;;
8104;SDS011;4095;48.942;9.104;2022-10-16T07:55:38;5.67;;;2.70;;
8104;SDS011;4095;48.942;9.104;2022-10-16T07:58:04;4.03;;;2.60;;
8104;SDS011;4095;48.942;9.104;2022-10-16T08:00:30;4.63;;;2.40;;
8104;SDS011;4095;48.942;9.104;2022-10-16T08:02:57;2.53;;;2.30;;
8104;SDS011;4095;48.942;9.104;2022-10-16T08:05:26;5.87;;;2.30;;
8104;SDS011;4095;48.942;9.104;2022-10-16T08:07:53;2.40;;;2.10;;
8104;SDS011;4095;48.942;9.104;2022-10-16T08:10:19;3.70;;;2.30;;
8104;SDS011;4095;48.942;9.104;2022-10-16T08:12:46;2.47;;;2.10;;
8104;SDS011;4095;48.942;9.104;2022-10-16T08:15:12;6.77;;;2.43;;
8104;SDS011;4095;48.942;9.104;2022-10-16T08:17:38;4.77;;;2.93;;
8104;SDS011;4095;48.942;9.104;2022-10-16T08:20:03;3.93;;;2.50;;
8104;SDS011;4095;48.942;9.104;2022-10-16T08:22:29;6.27;;;2.50;;
8104;SDS011;4095;48.942;9.104;2022-10-16T08:24:55;4.27;;;2.70;;
8104;SDS011;4095;48.942;9.104;2022-10-16T08:27:21;3.30;;;2.30;;
8104;SDS011;4095;48.942;9.104;2022-10-16T08:29:48;3.63;;;2.57;;
8104;SDS011;4095;48.942;9.104;2022-10-16T08:32:14;4.67;;;2.60;;
8104;SDS011;4095;48.942;9.104;2022-10-16T08:34:39;4.73;;;2.90;;
8104;SDS011;4095;48.942;9.104;2022-10-16T08:37:05;4.03;;;2.63;;
8104;SDS011;4095;48.942;9.104;2022-10-16T08:39:32;4.47;;;2.37;;
8104;SDS011;4095;48.942;9.104;2022-10-16T08:47:13;2.70;;;2.00;;
8104;SDS011;4095;48.942;9.104;2022-10-16T08:50:31;6.27;;;2.50;;
8104;SDS011;4095;48.942;9.104;2022-10-16T08:52:35;3.80;;;2.30;;
8104;SDS011;4095;48.942;9.104;2022-10-16T08:55:05;4.63;;;2.40;;
8104;SDS011;4095;48.942;9.104;2022-10-16T08:57:31;7.27;;;2.13;;
8104;SDS011;4095;48.942;9.104;2022-10-16T08:59:58;7.50;;;2.17;;
8104;SDS011;4095;48.942;9.104;2022-10-16T09:08:28;4.23;;;2.00;;
8104;SDS011;4095;48.942;9.104;2022-10-16T09:10:57;2.00;;;1.70;;
8104;SDS011;4095;48.942;9.104;2022-10-16T09:21:51;3.70;;;1.90;;
8104;SDS011;4095;48.942;9.104;2022-10-16T09:24:19;2.27;;;1.90;;
8104;SDS011;4095;48.942;9.104;2022-10-16T09:26:46;2.47;;;2.10;;
8104;SDS011;4095;48.942;9.104;2022-10-16T09:29:13;3.80;;;1.87;;
8104;SDS011;4095;48.942;9.104;2022-10-16T09:31:41;2.80;;;2.00;;
8104;SDS011;4095;48.942;9.104;2022-10-16T09:37:05;3.93;;;1.97;;
8104;SDS011;4095;48.942;9.104;2022-10-16T09:39:47;5.07;;;1.90;;
8104;SDS011;4095;48.942;9.104;2022-10-16T09:42:15;3.00;;;1.80;;
8104;SDS011;4095;48.942;9.104;2022-10-16T09:44:55;2.73;;;1.70;;
8104;SDS011;4095;48.942;9.104;2022-10-16T09:47:25;3.10;;;1.70;;
8104;SDS011;4095;48.942;9.104;2022-10-16T09:49:54;3.33;;;1.48;;
8104;SDS011;4095;48.942;9.104;2022-10-16T09:52:22;3.08;;;1.50;;
8104;SDS011;4095;48.942;9.104;2022-10-16T09:54:49;2.72;;;1.40;;
8104;SDS011;4095;48.942;9.104;2022-10-16T09:57:19;3.03;;;1.48;;
8104;SDS011;4095;48.942;9.104;2022-10-16T09:59:50;3.80;;;1.50;;
8104;SDS011;4095;48.942;9.104;2022-10-16T10:02:20;2.78;;;1.55;;
8104;SDS011;4095;48.942;9.104;2022-10-16T10:04:56;1.30;;;1.20;;
8104;SDS011;4095;48.942;9.104;2022-10-16T10:09:53;4.68;;;1.40;;
8104;SDS011;4095;48.942;9.104;2022-10-16T10:12:23;3.65;;;1.40;;
8104;SDS011;4095;48.942;9.104;2022-10-16T10:14:51;3.25;;;1.30;;
8104;SDS011;4095;48.942;9.104;2022-10-16T10:17:25;2.50;;;1.50;;
8104;SDS011;4095;48.942;9.104;2022-10-16T10:22:19;1.95;;;1.48;;
8104;SDS011;4095;48.942;9.104;2022-10-16T10:24:55;1.88;;;1.50;;
8104;SDS011;4095;48.942;9.104;2022-10-16T10:57:29;2.70;;;1.35;;
8104;SDS011;4095;48.942;9.104;2022-10-16T11:03:13;3.40;;;1.20;;
8104;SDS011;4095;48.942;9.104;2022-10-16T11:08:32;3.42;;;1.50;;
8104;SDS011;4095;48.942;9.104;2022-10-16T11:11:07;2.85;;;1.42;;
8104;SDS011;4095;48.942;9.104;2022-10-16T11:13:58;3.58;;;1.30;;
8104;SDS011;4095;48.942;9.104;2022-10-16T11:16:30;2.45;;;1.20;;
8104;SDS011;4095;48.942;9.104;2022-10-16T11:21:51;2.03;;;1.10;;
8104;SDS011;4095;48.942;9.104;2022-10-16T11:27:18;1.55;;;1.30;;
8104;SDS011;4095;48.942;9.104;2022-10-16T11:30:12;3.50;;;1.25;;
8104;SDS011;4095;48.942;9.104;2022-10-16T11:33:00;4.03;;;1.55;;
8104;SDS011;4095;48.942;9.104;2022-10-16T11:41:00;5.13;;;1.60;;
8104;SDS011;4095;48.942;9.104;2022-10-16T11:46:28;2.03;;;1.30;;
8104;SDS011;4095;48.942;9.104;2022-10-16T11:49:09;2.95;;;1.20;;
8104;SDS011;4095;48.942;9.104;2022-10-16T11:51:43;3.67;;;1.33;;
8104;SDS011;4095;48.942;9.104;2022-10-16T11:57:22;2.10;;;1.40;;
8104;SDS011;4095;48.942;9.104;2022-10-16T12:07:55;2.22;;;1.58;;
8104;SDS011;4095;48.942;9.104;2022-10-16T12:10:33;4.70;;;2.00;;
8104;SDS011;4095;48.942;9.104;2022-10-16T12:13:01;3.35;;;2.20;;
8104;SDS011;4095;48.942;9.104;2022-10-16T12:15:29;3.60;;;1.50;;
8104;SDS011;4095;48.942;9.104;2022-10-16T12:17:56;2.97;;;1.33;;
8104;SDS011;4095;48.942;9.104;2022-10-16T12:20:32;2.08;;;1.30;;
8104;SDS011;4095;48.942;9.104;2022-10-16T12:23:02;2.08;;;1.20;;
8104;SDS011;4095;48.942;9.104;2022-10-16T12:25:30;3.95;;;1.00;;
8104;SDS011;4095;48.942;9.104;2022-10-16T12:28:25;2.67;;;1.17;;
8104;SDS011;4095;48.942;9.104;2022-10-16T12:31:00;1.17;;;1.00;;
8104;SDS011;4095;48.942;9.104;2022-10-16T12:33:28;2.90;;;1.20;;
8104;SDS011;4095;48.942;9.104;2022-10-16T12:36:00;3.20;;;1.63;;
8104;SDS011;4095;48.942;9.104;2022-10-16T12:38:32;1.20;;;1.10;;
8104;SDS011;4095;48.942;9.104;2022-10-16T12:41:05;3.22;;;1.38;;
8104;SDS011;4095;48.942;9.104;2022-10-16T12:43:46;3.60;;;3.20;;
8104;SDS011;4095;48.942;9.104;2022-10-16T12:48:39;1.88;;;1.50;;
8104;SDS011;4095;48.942;9.104;2022-10-16T12:59:24;2.28;;;1.20;;
8104;SDS011;4095;48.942;9.104;2022-10-16T13:10:36;2.15;;;1.45;;
8104;SDS011;4095;48.942;9.104;2022-10-16T13:19:11;1.88;;;1.10;;
8104;SDS011;4095;48.942;9.104;2022-10-16T13:24:15;2.80;;;1.27;;
8104;SDS011;4095;48.942;9.104;2022-10-16T13:29:30;2.28;;;1.90;;
8104;SDS011;4095;48.942;9.104;2022-10-16T13:31:58;3.47;;;1.67;;
8104;SDS011;4095;48.942;9.104;2022-10-16T13:34:25;1.35;;;1.25;;
8104;SDS011;4095;48.942;9.104;2022-10-16T13:36:52;2.00;;;1.50;;
8104;SDS011;4095;48.942;9.104;2022-10-16T13:42:14;2.83;;;1.20;;
8104;SDS011;4095;48.942;9.104;2022-10-16T13:44:48;1.70;;;1.50;;
8104;SDS011;4095;48.942;9.104;2022-10-16T13:47:23;1.58;;;1.27;;
8104;SDS011;4095;48.942;9.104;2022-10-16T13:49:59;2.13;;;1.83;;
8104;SDS011;4095;48.942;9.104;2022-10-16T13:52:28;2.00;;;1.50;;
8104;SDS011;4095;48.942;9.104;2022-10-16T13:54:54;2.33;;;1.30;;
8104;SDS011;4095;48.942;9.104;2022-10-16T13:57:21;6.60;;;1.40;;
8104;SDS011;4095;48.942;9.104;2022-10-16T13:59:48;2.10;;;1.50;;
8104;SDS011;4095;48.942;9.104;2022-10-16T14:02:19;1.73;;;1.20;;
8104;SDS011;4095;48.942;9.104;2022-10-16T14:04:51;3.33;;;1.45;;
8104;SDS011;4095;48.942;9.104;2022-10-16T14:07:23;1.98;;;1.38;;
8104;SDS011;4095;48.942;9.104;2022-10-16T14:09:51;3.50;;;1.35;;
8104;SDS011;4095;48.942;9.104;2022-10-16T14:12:18;3.03;;;1.40;;
8104;SDS011;4095;48.942;9.104;2022-10-16T14:14:46;3.13;;;1.50;;
8104;SDS011;4095;48.942;9.104;2022-10-16T14:17:24;3.35;;;1.40;;
8104;SDS011;4095;48.942;9.104;2022-10-16T14:19:53;1.67;;;1.52;;
8104;SDS011;4095;48.942;9.104;2022-10-16T14:22:29;1.33;;;1.23;;
8104;SDS011;4095;48.942;9.104;2022-10-16T14:27:44;2.17;;;1.50;;
8104;SDS011;4095;48.942;9.104;2022-10-16T14:32:40;3.15;;;1.40;;
8104;SDS011;4095;48.942;9.104;2022-10-16T14:35:56;1.90;;;1.50;;
8104;SDS011;4095;48.942;9.104;2022-10-16T14:37:55;3.22;;;1.25;;
8104;SDS011;4095;48.942;9.104;2022-10-16T14:40:26;2.28;;;1.30;;
8104;SDS011;4095;48.942;9.104;2022-10-16T14:42:57;1.92;;;1.30;;
8104;SDS011;4095;48.942;9.104;2022-10-16T14:45:24;4.70;;;1.48;;
8104;SDS011;4095;48.942;9.104;2022-10-16T14:47:53;2.25;;;1.52;;
8104;SDS011;4095;48.942;9.104;2022-10-16T14:50:21;3.70;;;2.10;;
8104;SDS011;4095;48.942;9.104;2022-10-16T14:52:47;2.15;;;1.65;;
8104;SDS011;4095;48.942;9.104;2022-10-16T14:55:13;2.38;;;1.50;;
8104;SDS011;4095;48.942;9.104;2022-10-16T14:57:39;2.38;;;1.40;;
8104;SDS011;4095;48.942;9.104;2022-10-16T15:00:19;1.98;;;1.50;;
8104;SDS011;4095;48.942;9.104;2022-10-16T15:02:47;2.17;;;1.50;;
8104;SDS011;4095;48.942;9.104;2022-10-16T15:05:24;2.53;;;1.65;;
8104;SDS011;4095;48.942;9.104;2022-10-16T15:07:51;3.80;;;1.50;;
8104;SDS011;4095;48.942;9.104;2022-10-16T15:10:18;2.67;;;1.50;;
8104;SDS011;4095;48.942;9.104;2022-10-16T15:12:46;2.10;;;1.38;;
8104;SDS011;4095;48.942;9.104;2022-10-16T15:17:56;3.35;;;2.10;;
8104;SDS011;4095;48.942;9.104;2022-10-16T15:20:23;1.70;;;1.52;;
8104;SDS011;4095;48.942;9.104;2022-10-16T15:22:50;2.75;;;1.70;;
8104;SDS011;4095;48.942;9.104;2022-10-16T15:27:41;2.42;;;2.08;;
8104;SDS011;4095;48.942;9.104;2022-10-16T15:30:06;3.88;;;1.80;;
8104;SDS011;4095;48.942;9.104;2022-10-16T15:32:32;3.17;;;2.35;;
8104;SDS011;4095;48.942;9.104;2022-10-16T15:34:58;2.25;;;1.80;;
8104;SDS011;4095;48.942;9.104;2022-10-16T15:37:23;6.88;;;4.25;;
8104;SDS011;4095;48.942;9.104;2022-10-16T15:39:50;4.18;;;2.60;;
8104;SDS011;4095;48.942;9.104;2022-10-16T15:42:15;3.63;;;1.52;;
8104;SDS011;4095;48.942;9.104;2022-10-16T15:44:41;3.45;;;1.90;;
8104;SDS011;4095;48.942;9.104;2022-10-16T15:47:07;3.20;;;1.70;;
8104;SDS011;4095;48.942;9.104;2022-10-16T15:49:33;3.33;;;2.00;;
8104;SDS011;4095;48.942;9.104;2022-10-16T15:51:58;5.25;;;2.50;;
8104;SDS011;4095;48.942;9.104;2022-10-16T15:54:24;1.90;;;1.65;;
8104;SDS011;4095;48.942;9.104;2022-10-16T15:56:49;2.30;;;1.88;;
8104;SDS011;4095;48.942;9.104;2022-10-16T15:59:15;1.83;;;1.60;;
8104;SDS011;4095;48.942;9.104;2022-10-16T16:01:41;3.03;;;1.90;;
8104;SDS011;4095;48.942;9.104;2022-10-16T16:04:06;2.50;;;1.90;;
8104;SDS011;4095;48.942;9.104;2022-10-16T16:06:32;3.03;;;2.72;;
8104;SDS011;4095;48.942;9.104;2022-10-16T16:08:58;4.25;;;3.85;;
8104;SDS011;4095;48.942;9.104;2022-10-16T16:11:24;6.30;;;4.40;;
8104;SDS011;4095;48.942;9.104;2022-10-16T16:13:50;5.82;;;3.55;;
8104;SDS011;4095;48.942;9.104;2022-10-16T16:16:16;4.70;;;3.15;;
8104;SDS011;4095;48.942;9.104;2022-10-16T16:18:42;10.20;;;7.67;;
8104;SDS011;4095;48.942;9.104;2022-10-16T16:21:12;5.40;;;4.50;;
8104;SDS011;4095;48.942;9.104;2022-10-16T16:23:37;6.40;;;4.13;;
8104;SDS011;4095;48.942;9.104;2022-10-16T16:26:13;5.93;;;4.03;;
8104;SDS011;4095;48.942;9.104;2022-10-16T16:28:52;3.50;;;3.20;;
8104;SDS011;4095;48.942;9.104;2022-10-16T16:31:19;5.10;;;3.53;;
8104;SDS011;4095;48.942;9.104;2022-10-16T16:33:48;5.37;;;3.50;;
8104;SDS011;4095;48.942;9.104;2022-10-16T16:36:13;4.73;;;3.40;;
8104;SDS011;4095;48.942;9.104;2022-10-16T16:38:39;5.20;;;3.43;;
8104;SDS011;4095;48.942;9.104;2022-10-16T16:41:15;5.17;;;3.50;;
8104;SDS011;4095;48.942;9.104;2022-10-16T16:43:54;5.57;;;3.80;;
8104;SDS011;4095;48.942;9.104;2022-10-16T16:46:25;4.90;;;4.10;;
8104;SDS011;4095;48.942;9.104;2022-10-16T16:48:51;5.47;;;4.07;;
8104;SDS011;4095;48.942;9.104;2022-10-16T16:51:20;5.60;;;4.13;;
8104;SDS011;4095;48.942;9.104;2022-10-16T16:53:47;5.40;;;4.07;;
8104;SDS011;4095;48.942;9.104;2022-10-16T16:56:14;4.87;;;3.37;;
8104;SDS011;4095;48.942;9.104;2022-10-16T16:58:40;6.10;;;3.27;;
8104;SDS011;4095;48.942;9.104;2022-10-16T17:01:10;4.30;;;3.20;;
8104;SDS011;4095;48.942;9.104;2022-10-16T17:03:35;4.87;;;3.37;;
8104;SDS011;4095;48.942;9.104;2022-10-16T17:06:02;6.33;;;3.63;;
8104;SDS011;4095;48.942;9.104;2022-10-16T17:08:35;4.73;;;3.50;;
8104;SDS011;4095;48.942;9.104;2022-10-16T17:11:02;6.77;;;3.53;;
8104;SDS011;4095;48.942;9.104;2022-10-16T17:13:29;6.33;;;3.30;;
8104;SDS011;4095;48.942;9.104;2022-10-16T17:16:03;5.13;;;3.30;;
8104;SDS011;4095;48.942;9.104;2022-10-16T17:18:30;5.97;;;3.30;;
8104;SDS011;4095;48.942;9.104;2022-10-16T17:21:04;4.10;;;3.10;;
8104;SDS011;4095;48.942;9.104;2022-10-16T17:23:32;5.03;;;3.20;;
8104;SDS011;4095;48.942;9.104;2022-10-16T17:26:05;4.87;;;3.20;;
8104;SDS011;4095;48.942;9.104;2022-10-16T17:28:32;5.43;;;4.17;;
8104;SDS011;4095;48.942;9.104;2022-10-16T17:31:09;6.50;;;4.60;;
8104;SDS011;4095;48.942;9.104;2022-10-16T17:33:37;4.83;;;4.10;;
8104;SDS011;4095;48.942;9.104;2022-10-16T17:36:03;6.17;;;4.10;;
8104;SDS011;4095;48.942;9.104;2022-10-16T17:38:29;4.30;;;3.87;;
8104;SDS011;4095;48.942;9.104;2022-10-16T17:40:54;4.97;;;3.37;;
8104;SDS011;4095;48.942;9.104;2022-10-16T17:43:20;4.60;;;4.10;;
8104;SDS011;4095;48.942;9.104;2022-10-16T17:45:46;8.30;;;4.80;;
8104;SDS011;4095;48.942;9.104;2022-10-16T17:48:11;6.73;;;4.30;;
8104;SDS011;4095;48.942;9.104;2022-10-16T17:50:40;4.53;;;4.10;;
8104;SDS011;4095;48.942;9.104;2022-10-16T17:53:07;4.27;;;3.87;;